Time;durP1;ratioP1;P1;durP2;ratioP2;P2;SDS_P1;SDS_P2;PMS_P1;PMS_P2;Temp;Humidity;BMP_temperature;BMP_pressure;BME280_temperature;BME280_humidity;BME280_pressure;Samples;Min_cycle;Max_cycle;Signal;HPM_P1;HPM_P2
2021/10/05 00:00:04;;;;;;;7.95;2.70;;;;;;;11.34;86.29;100981.00;4999398;28;20050;-75
2021/10/05 00:02:31;;;;;;;7.68;2.30;;;;;;;11.34;86.74;100975.81;5016361;28;20049;-74
2021/10/05 00:04:57;;;;;;;6.00;1.92;;;;;;;11.25;86.58;100976.84;4999810;28;20049;-75
2021/10/05 00:07:24;;;;;;;7.20;2.03;;;;;;;11.25;86.79;100978.56;5000120;28;20078;-74
2021/10/05 00:09:50;;;;;;;6.80;2.05;;;;;;;11.24;86.69;100969.03;4999832;28;20042;-74
2021/10/05 00:12:17;;;;;;;9.07;2.50;;;;;;;11.25;87.21;100970.78;5004922;28;20057;-75
2021/10/05 00:14:45;;;;;;;7.80;2.30;;;;;;;11.22;86.88;100960.44;4993780;28;20045;-75
2021/10/05 00:17:11;;;;;;;5.75;1.98;;;;;;;11.22;87.06;100961.28;5002092;28;20065;-75
2021/10/05 00:19:37;;;;;;;8.02;2.17;;;;;;;11.22;87.10;100960.44;4995860;28;20046;-74
2021/10/05 00:22:05;;;;;;;6.47;2.10;;;;;;;11.20;87.34;100953.50;5002391;28;20053;-74
2021/10/05 00:24:32;;;;;;;7.00;2.30;;;;;;;11.24;87.13;100950.81;5001794;28;20054;-76
2021/10/05 00:26:58;;;;;;;6.15;2.88;;;;;;;11.22;87.13;100956.06;4999440;28;20069;-74
2021/10/05 00:29:24;;;;;;;5.95;2.10;;;;;;;11.21;87.38;100951.75;4997696;28;20519;-75
2021/10/05 00:31:52;;;;;;;9.38;2.20;;;;;;;11.17;87.50;100937.94;4999551;28;20428;-72
2021/10/05 00:34:19;;;;;;;7.90;2.60;;;;;;;11.18;87.37;100937.03;4999504;28;20050;-74
2021/10/05 00:36:45;;;;;;;7.28;2.67;;;;;;;11.17;87.19;100932.72;4995399;28;20042;-74
2021/10/05 00:39:12;;;;;;;6.80;2.25;;;;;;;11.14;87.38;100931.94;4998118;28;20054;-76
2021/10/05 00:41:39;;;;;;;8.00;2.50;;;;;;;11.14;87.38;100922.34;5002165;28;20057;-73
2021/10/05 00:44:06;;;;;;;7.68;2.42;;;;;;;11.14;87.27;100917.16;5000375;28;20057;-75
2021/10/05 00:46:34;;;;;;;5.28;2.20;;;;;;;11.16;87.27;100922.34;5003789;28;20528;-74
2021/10/05 00:49:02;;;;;;;7.38;2.58;;;;;;;11.14;87.59;100924.97;4999658;28;20522;-74
2021/10/05 00:51:29;;;;;;;7.43;1.95;;;;;;;11.12;87.61;100918.94;4996430;28;20054;-74
2021/10/05 00:53:56;;;;;;;4.78;2.13;;;;;;;11.07;87.57;100905.13;5000932;28;20049;-75
2021/10/05 00:56:23;;;;;;;7.78;2.65;;;;;;;11.07;87.50;100907.75;4997786;28;20062;-75
2021/10/05 00:58:50;;;;;;;5.93;2.25;;;;;;;11.06;87.35;100911.22;4996870;28;20546;-75
2021/10/05 01:01:17;;;;;;;6.45;2.15;;;;;;;11.06;87.97;100903.41;4996027;28;20050;-74
2021/10/05 01:03:44;;;;;;;7.22;3.05;;;;;;;11.07;87.61;100901.69;5005004;28;20496;-74
2021/10/05 01:06:12;;;;;;;6.90;2.45;;;;;;;11.08;87.91;100898.22;4999795;28;20056;-75
2021/10/05 01:08:38;;;;;;;8.05;2.58;;;;;;;11.02;88.06;100883.56;5003945;28;20061;-74
2021/10/05 01:11:05;;;;;;;5.18;2.03;;;;;;;11.01;87.99;100889.66;5001910;28;20046;-74
2021/10/05 01:13:32;;;;;;;7.00;2.00;;;;;;;11.06;87.85;100887.81;4994627;28;20073;-74
2021/10/05 01:15:59;;;;;;;7.45;2.53;;;;;;;10.98;88.26;100874.94;5001307;28;20157;-76
2021/10/05 01:18:25;;;;;;;5.25;2.30;;;;;;;11.00;88.24;100882.72;5000379;28;20046;-75
2021/10/05 01:20:55;;;;;;;7.43;2.72;;;;;;;11.01;88.33;100871.44;5003164;28;20046;-73
2021/10/05 01:23:22;;;;;;;6.50;2.17;;;;;;;11.00;88.40;100877.53;5001980;28;20508;-75
2021/10/05 01:25:48;;;;;;;5.50;2.28;;;;;;;10.98;88.24;100872.31;4993600;28;20038;-75
2021/10/05 01:28:18;;;;;;;5.55;2.60;;;;;;;10.96;88.40;100868.03;4998685;28;20069;-74
2021/10/05 01:30:44;;;;;;;5.07;2.25;;;;;;;10.91;88.60;100869.88;4998114;28;20050;-75
2021/10/05 01:33:11;;;;;;;5.57;2.40;;;;;;;10.89;88.96;100869.91;5010994;28;20054;-75
2021/10/05 01:35:37;;;;;;;7.43;2.33;;;;;;;10.86;88.73;100870.81;5019894;28;20064;-75
2021/10/05 01:38:05;;;;;;;5.07;1.90;;;;;;;10.87;88.85;100866.47;5013840;28;20065;-74
2021/10/05 01:40:32;;;;;;;7.18;2.40;;;;;;;10.87;88.79;100856.06;5006105;28;20061;-74
2021/10/05 01:42:58;;;;;;;6.90;2.55;;;;;;;10.83;89.27;100850.03;5002680;28;20053;-76
2021/10/05 01:45:25;;;;;;;5.78;2.17;;;;;;;10.82;89.15;100850.09;5006378;28;20047;-75
2021/10/05 01:47:51;;;;;;;6.82;2.75;;;;;;;10.78;89.65;100845.84;5006255;28;20507;-72
2021/10/05 01:50:18;;;;;;;5.63;2.17;;;;;;;10.77;89.64;100839.75;5003448;28;20408;-73
2021/10/05 01:52:45;;;;;;;5.05;2.40;;;;;;;10.73;90.07;100838.09;5010212;28;20116;-73
2021/10/05 01:55:13;;;;;;;7.50;2.70;;;;;;;10.73;90.16;100832.88;5006850;28;20046;-74
2021/10/05 01:57:39;;;;;;;6.60;2.75;;;;;;;10.73;90.05;100822.47;5002310;28;20050;-74
2021/10/05 02:00:07;;;;;;;7.72;2.75;;;;;;;10.71;90.26;100819.06;5003043;28;20045;-74
2021/10/05 02:02:34;;;;;;;8.43;2.97;;;;;;;10.71;90.19;100819.06;5007584;28;20046;-74
2021/10/05 02:05:00;;;;;;;6.00;3.03;;;;;;;10.72;89.96;100816.44;5001455;28;20057;-74
2021/10/05 02:07:27;;;;;;;7.18;3.45;;;;;;;10.73;90.01;100812.06;5003996;28;20053;-74
2021/10/05 02:09:53;;;;;;;8.38;3.33;;;;;;;10.73;90.25;100814.66;5005295;28;20050;-74
2021/10/05 02:12:21;;;;;;;7.10;3.00;;;;;;;10.68;90.26;100811.31;5007995;28;20112;-73
2021/10/05 02:14:48;;;;;;;6.72;2.83;;;;;;;10.64;90.41;100802.72;5004207;28;20057;-72
2021/10/05 02:17:16;;;;;;;6.63;2.80;;;;;;;10.63;90.47;100797.56;5001903;28;20053;-74
2021/10/05 02:19:42;;;;;;;7.05;3.17;;;;;;;10.64;91.04;100796.63;5006020;28;20260;-74
2021/10/05 02:22:09;;;;;;;6.78;3.50;;;;;;;10.62;90.81;100788.88;5000202;28;20069;-76
2021/10/05 02:24:42;;;;;;;6.15;3.25;;;;;;;10.62;90.80;100788.03;5003071;28;20053;-75
2021/10/05 02:27:11;;;;;;;5.97;2.90;;;;;;;10.57;91.30;100788.97;5000431;28;20069;-74
2021/10/05 02:29:39;;;;;;;11.82;3.70;;;;;;;10.61;91.20;100781.94;4998793;28;20057;-75
2021/10/05 02:32:08;;;;;;;8.65;3.35;;;;;;;10.62;91.28;100778.47;4995666;28;20466;-74
2021/10/05 02:34:35;;;;;;;7.93;3.40;;;;;;;10.62;91.32;100778.47;4992545;28;20046;-74
2021/10/05 02:37:01;;;;;;;7.95;3.28;;;;;;;10.64;91.01;100770.63;5014733;28;20046;-72
2021/10/05 02:39:28;;;;;;;10.93;3.85;;;;;;;10.62;91.15;100772.41;5013528;28;20052;-75
2021/10/05 02:41:55;;;;;;;8.50;4.00;;;;;;;10.63;90.94;100759.38;5002927;28;20451;-73
2021/10/05 02:44:21;;;;;;;8.90;3.67;;;;;;;10.60;91.38;100756.81;5004606;28;20053;-74
2021/10/05 02:46:49;;;;;;;8.85;4.97;;;;;;;10.60;91.44;100761.19;4998907;28;20053;-74
2021/10/05 02:49:17;;;;;;;6.95;3.85;;;;;;;10.57;91.63;100754.31;5005872;28;20519;-74
2021/10/05 02:51:44;;;;;;;7.22;3.30;;;;;;;10.56;91.88;100753.44;4995625;28;20144;-74
2021/10/05 02:54:11;;;;;;;8.38;4.05;;;;;;;10.57;91.61;100755.16;5005284;28;20127;-74
2021/10/05 02:56:37;;;;;;;7.28;3.92;;;;;;;10.56;91.81;100748.22;4999115;28;20403;-74
2021/10/05 02:59:04;;;;;;;7.63;3.88;;;;;;;10.55;91.58;100745.66;4998614;28;20099;-74
2021/10/05 03:01:30;;;;;;;8.95;4.13;;;;;;;10.56;91.78;100737.81;5002611;28;20061;-74
2021/10/05 03:03:58;;;;;;;8.70;4.28;;;;;;;10.51;91.67;100729.25;4995110;28;20046;-74
2021/10/05 03:06:24;;;;;;;10.05;3.60;;;;;;;10.49;92.38;100735.34;5002589;28;20061;-73
2021/10/05 03:08:54;;;;;;;7.60;3.75;;;;;;;10.50;92.04;100724.94;5003181;28;20053;-73
2021/10/05 03:11:21;;;;;;;8.18;4.00;;;;;;;10.50;92.49;100735.34;4997190;28;20057;-72
2021/10/05 03:13:47;;;;;;;7.13;4.10;;;;;;;10.54;92.19;100729.19;4999408;28;20530;-73
2021/10/05 03:16:14;;;;;;;9.23;3.95;;;;;;;10.51;91.96;100723.19;5002045;28;20742;-73
2021/10/05 03:18:41;;;;;;;12.43;4.20;;;;;;;10.50;92.44;100726.66;4998864;28;20435;-75
2021/10/05 03:21:09;;;;;;;9.40;3.78;;;;;;;10.50;92.22;100722.34;4990465;28;20137;-75
2021/10/05 03:23:36;;;;;;;7.88;4.00;;;;;;;10.49;92.40;100719.75;5002929;28;20492;-74
2021/10/05 03:26:04;;;;;;;8.95;4.10;;;;;;;10.46;92.57;100725.88;4999171;28;20531;-73
2021/10/05 03:28:31;;;;;;;5.72;3.30;;;;;;;10.48;92.51;100716.31;4993638;28;20129;-73
2021/10/05 03:30:58;;;;;;;7.50;3.25;;;;;;;10.51;91.98;100712.78;4995992;28;20815;-75
2021/10/05 03:33:24;;;;;;;6.95;3.10;;;;;;;10.48;92.44;100713.72;4997767;28;20061;-73
2021/10/05 03:35:51;;;;;;;7.28;3.03;;;;;;;10.46;92.49;100707.69;4996825;28;20042;-75
2021/10/05 03:38:19;;;;;;;6.65;3.20;;;;;;;10.51;92.51;100705.84;4994742;28;20527;-74
2021/10/05 03:40:45;;;;;;;8.52;3.28;;;;;;;10.54;92.21;100699.72;4995853;28;20054;-73
2021/10/05 03:43:12;;;;;;;5.68;2.78;;;;;;;10.50;91.92;100693.75;4997122;28;20063;-76
2021/10/05 03:45:38;;;;;;;6.35;2.90;;;;;;;10.48;92.25;100685.09;4995947;28;20051;-73
2021/10/05 03:48:05;;;;;;;8.00;3.13;;;;;;;10.47;92.14;100683.38;4992202;28;20058;-73
2021/10/05 03:50:31;;;;;;;6.43;2.80;;;;;;;10.45;92.54;100682.56;4988147;28;20050;-73
2021/10/05 03:52:58;;;;;;;5.75;2.72;;;;;;;10.44;92.32;100678.25;4997814;28;20523;-73
2021/10/05 03:55:26;;;;;;;5.45;2.88;;;;;;;10.44;92.36;100675.63;4994907;28;20061;-73
2021/10/05 03:57:52;;;;;;;4.28;2.35;;;;;;;10.46;92.26;100668.66;4996701;28;20061;-73
2021/10/05 04:00:19;;;;;;;7.43;2.60;;;;;;;10.42;92.30;100657.47;5005251;28;20096;-74
2021/10/05 04:02:46;;;;;;;10.98;3.03;;;;;;;10.41;92.75;100660.97;5002117;28;20139;-73
2021/10/05 04:05:12;;;;;;;7.00;3.13;;;;;;;10.40;92.67;100654.03;4996084;28;20049;-73
2021/10/05 04:07:38;;;;;;;7.72;3.03;;;;;;;10.39;92.64;100661.88;4990720;28;20064;-73
2021/10/05 04:10:06;;;;;;;7.38;3.08;;;;;;;10.39;92.56;100661.88;4988238;28;20624;-74
2021/10/05 04:12:35;;;;;;;5.68;2.80;;;;;;;10.41;92.16;100653.16;5000551;28;20042;-73
2021/10/05 04:15:04;;;;;;;6.68;2.53;;;;;;;10.38;92.83;100654.97;5001322;28;20054;-75
2021/10/05 04:17:31;;;;;;;6.00;2.80;;;;;;;10.36;92.71;100651.50;4997835;28;20050;-72
2021/10/05 04:19:57;;;;;;;6.60;3.13;;;;;;;10.34;92.67;100642.88;4999368;28;20519;-73
2021/10/05 04:22:24;;;;;;;6.38;3.10;;;;;;;10.29;92.90;100644.72;5000518;28;20046;-73
2021/10/05 04:24:50;;;;;;;9.25;2.75;;;;;;;10.31;92.96;100642.94;4998618;28;20050;-73
2021/10/05 04:27:17;;;;;;;5.72;2.50;;;;;;;10.32;93.05;100640.31;5004351;28;20136;-74
2021/10/05 04:29:45;;;;;;;6.15;2.42;;;;;;;10.29;92.84;100639.53;5000098;28;20057;-73
2021/10/05 04:32:11;;;;;;;11.85;2.67;;;;;;;10.26;92.79;100632.66;5000976;28;20062;-74
2021/10/05 04:34:38;;;;;;;6.13;3.08;;;;;;;10.27;93.11;100630.00;4996164;28;20430;-73
2021/10/05 04:37:06;;;;;;;5.03;2.55;;;;;;;10.24;93.64;100637.00;5000316;28;20412;-73
2021/10/05 04:39:33;;;;;;;6.07;2.40;;;;;;;10.26;93.25;100643.03;5003188;28;20053;-73
2021/10/05 04:41:59;;;;;;;5.35;2.78;;;;;;;10.23;93.45;100632.69;4994040;28;20089;-72
2021/10/05 04:44:26;;;;;;;6.85;2.65;;;;;;;10.22;93.29;100624.06;4997039;28;20054;-71
2021/10/05 04:46:53;;;;;;;6.07;3.10;;;;;;;10.22;93.59;100615.38;4993776;28;20071;-73
2021/10/05 04:49:20;;;;;;;4.72;2.35;;;;;;;10.26;93.83;100611.84;4999956;28;20384;-72
2021/10/05 04:51:46;;;;;;;4.88;2.63;;;;;;;10.27;93.43;100609.22;4993382;28;20050;-73
2021/10/05 04:54:13;;;;;;;7.30;2.83;;;;;;;10.29;93.74;100608.31;5000458;28;20053;-73
2021/10/05 04:56:40;;;;;;;5.30;2.63;;;;;;;10.32;93.81;100608.28;5002331;28;20056;-71
2021/10/05 04:59:06;;;;;;;6.78;2.55;;;;;;;10.37;93.94;100609.00;4997536;28;20050;-73
2021/10/05 05:01:33;;;;;;;4.85;2.65;;;;;;;10.37;94.11;100596.94;5012233;28;20492;-73
2021/10/05 05:04:01;;;;;;;6.03;2.63;;;;;;;10.27;93.53;100596.22;5029054;28;20030;-77
2021/10/05 05:06:27;;;;;;;7.50;3.00;;;;;;;10.30;93.92;100586.63;5025136;28;20038;-77
2021/10/05 05:08:53;;;;;;;6.97;3.95;;;;;;;10.41;94.02;100585.56;5026230;28;20061;-77
2021/10/05 05:11:20;;;;;;;6.47;3.03;;;;;;;10.35;93.83;100582.19;5034908;28;20046;-75
2021/10/05 05:13:47;;;;;;;6.70;2.97;;;;;;;10.32;93.92;100582.28;5033301;28;20029;-76
2021/10/05 05:16:13;;;;;;;6.13;3.10;;;;;;;10.32;93.98;100582.28;5028382;28;20038;-77
2021/10/05 05:18:39;;;;;;;9.68;3.78;;;;;;;10.31;94.45;100577.97;5036040;28;20042;-78
2021/10/05 05:21:08;;;;;;;7.30;2.95;;;;;;;10.32;94.11;100577.06;5021034;28;20088;-74
2021/10/05 05:23:34;;;;;;;8.13;3.13;;;;;;;10.29;94.44;100572.78;5009121;28;20038;-74
2021/10/05 05:26:01;;;;;;;5.88;3.03;;;;;;;10.38;94.18;100576.97;5007185;28;20057;-74
2021/10/05 05:28:28;;;;;;;6.75;3.13;;;;;;;10.31;94.25;100568.41;5012844;28;20056;-74
2021/10/05 05:30:54;;;;;;;6.53;3.38;;;;;;;10.31;94.90;100575.34;4997090;28;20146;-74
2021/10/05 05:33:21;;;;;;;9.13;3.88;;;;;;;10.34;94.47;100564.88;5009610;28;20053;-74
2021/10/05 05:35:48;;;;;;;6.85;3.25;;;;;;;10.38;94.39;100570.00;5003759;28;20054;-74
2021/10/05 05:38:16;;;;;;;8.52;3.30;;;;;;;10.33;94.99;100558.00;5009154;28;20077;-74
2021/10/05 05:40:42;;;;;;;9.60;3.85;;;;;;;10.32;94.58;100564.91;4997520;28;20062;-74
2021/10/05 05:43:09;;;;;;;6.68;3.50;;;;;;;10.33;94.27;100566.63;5003641;28;20054;-73
2021/10/05 05:45:35;;;;;;;8.90;3.85;;;;;;;10.31;94.75;100562.34;5012390;28;20184;-74
2021/10/05 05:48:02;;;;;;;8.80;3.70;;;;;;;10.31;94.94;100557.16;5018073;28;20050;-75
2021/10/05 05:50:29;;;;;;;6.97;4.00;;;;;;;10.30;94.65;100558.03;5001369;28;20081;-74
2021/10/05 05:52:55;;;;;;;7.85;4.60;;;;;;;10.27;94.84;100551.16;5008170;28;20062;-74
2021/10/05 05:55:24;;;;;;;11.07;4.20;;;;;;;10.23;95.11;100545.16;5001915;28;20504;-77
2021/10/05 05:57:51;;;;;;;8.98;4.07;;;;;;;10.25;94.99;100540.78;5001917;28;20061;-75
2021/10/05 06:00:18;;;;;;;13.13;3.88;;;;;;;10.26;95.17;100539.06;5001259;28;20123;-74
2021/10/05 06:02:45;;;;;;;8.98;3.70;;;;;;;10.34;94.87;100528.47;5001046;28;20054;-75
2021/10/05 06:05:11;;;;;;;9.13;3.65;;;;;;;10.34;95.02;100518.94;5000296;28;20388;-74
2021/10/05 06:07:38;;;;;;;10.23;4.32;;;;;;;10.32;94.53;100514.69;5002075;28;20095;-74
2021/10/05 06:10:06;;;;;;;9.30;4.28;;;;;;;10.34;95.14;100516.34;5000962;28;20042;-74
2021/10/05 06:12:38;;;;;;;10.60;4.20;;;;;;;10.41;94.98;100522.31;5002358;28;20530;-74
2021/10/05 06:15:06;;;;;;;7.70;4.20;;;;;;;10.37;95.20;100538.81;4999256;28;20049;-76
2021/10/05 06:17:33;;;;;;;9.57;4.20;;;;;;;10.36;95.25;100529.31;4998835;28;20050;-75
2021/10/05 06:19:59;;;;;;;8.57;4.80;;;;;;;10.35;95.08;100530.19;4994904;28;20062;-74
2021/10/05 06:22:25;;;;;;;10.38;4.80;;;;;;;10.43;95.42;100530.94;4998706;28;20133;-76
2021/10/05 06:24:52;;;;;;;12.75;5.20;;;;;;;10.46;94.92;100523.03;5001559;28;20454;-74
2021/10/05 06:27:18;;;;;;;9.55;5.20;;;;;;;10.49;94.97;100527.31;5005629;28;20038;-74
2021/10/05 06:29:46;;;;;;;12.23;5.05;;;;;;;10.48;95.17;100521.28;4999177;28;20108;-75
2021/10/05 06:32:13;;;;;;;8.13;4.57;;;;;;;10.51;94.71;100510.81;4999105;28;20807;-74
2021/10/05 06:34:39;;;;;;;10.23;4.47;;;;;;;10.53;94.78;100514.22;4995832;28;20904;-74
2021/10/05 06:37:06;;;;;;;9.13;4.25;;;;;;;10.52;95.19;100516.84;4997342;28;20063;-75
2021/10/05 06:39:32;;;;;;;14.60;5.70;;;;;;;10.57;95.32;100512.41;4993372;28;20057;-74
2021/10/05 06:41:59;;;;;;;7.50;3.38;;;;;;;10.64;94.73;100508.78;5000024;28;20155;-76
2021/10/05 06:44:25;;;;;;;7.25;3.80;;;;;;;10.66;94.75;100504.41;4997134;28;20050;-73
2021/10/05 06:46:53;;;;;;;11.70;4.03;;;;;;;10.73;94.38;100505.09;5002829;28;20113;-73
2021/10/05 06:49:20;;;;;;;7.55;4.03;;;;;;;10.75;94.46;100508.50;5004520;28;20057;-74
2021/10/05 06:51:46;;;;;;;8.82;4.18;;;;;;;10.84;93.95;100497.88;4995687;28;20042;-75
2021/10/05 06:54:12;;;;;;;8.75;3.80;;;;;;;10.83;94.38;100493.56;5002612;28;20496;-74
2021/10/05 06:56:39;;;;;;;9.10;4.30;;;;;;;10.91;93.64;100498.59;5001941;28;20460;-74
2021/10/05 06:59:05;;;;;;;6.70;4.00;;;;;;;10.89;94.10;100488.22;5000324;28;20050;-74
2021/10/05 07:01:32;;;;;;;8.48;3.90;;;;;;;10.90;93.99;100494.28;4997983;28;20046;-74
2021/10/05 07:04:00;;;;;;;7.50;3.97;;;;;;;10.88;93.96;100488.25;4997827;28;20066;-74
2021/10/05 07:06:26;;;;;;;12.07;4.43;;;;;;;10.92;93.76;100479.50;4993912;28;20046;-73
2021/10/05 07:08:54;;;;;;;8.15;4.65;;;;;;;11.06;93.48;100481.75;4996726;28;20059;-73
2021/10/05 07:11:21;;;;;;;11.85;4.78;;;;;;;11.03;93.36;100477.47;4995429;28;20050;-73
2021/10/05 07:13:47;;;;;;;7.05;4.47;;;;;;;11.11;92.95;100468.59;4994684;28;20452;-72
2021/10/05 07:16:14;;;;;;;8.73;4.50;;;;;;;11.07;92.81;100467.84;5002910;28;20049;-72
2021/10/05 07:18:40;;;;;;;9.00;4.75;;;;;;;11.02;93.50;100467.13;5003699;28;20046;-73
2021/10/05 07:21:08;;;;;;;9.93;4.97;;;;;;;11.05;93.69;100467.03;4998768;28;20054;-74
2021/10/05 07:23:35;;;;;;;9.18;4.32;;;;;;;11.02;93.52;100462.75;4990248;28;20580;-73
2021/10/05 07:26:01;;;;;;;8.90;4.60;;;;;;;11.06;93.58;100471.34;4994796;28;20053;-75
2021/10/05 07:28:28;;;;;;;7.78;4.47;;;;;;;11.16;93.36;100462.41;5000436;28;20057;-73
2021/10/05 07:30:54;;;;;;;12.23;4.97;;;;;;;11.22;93.21;100463.16;4996972;28;20049;-73
2021/10/05 07:33:23;;;;;;;10.57;5.38;;;;;;;11.27;92.91;100458.66;5002967;28;20160;-73
2021/10/05 07:35:50;;;;;;;9.32;4.47;;;;;;;11.38;92.92;100461.00;4994223;28;20057;-73
2021/10/05 07:38:17;;;;;;;8.55;4.65;;;;;;;11.40;92.86;100451.34;4994145;28;20579;-75
2021/10/05 07:40:44;;;;;;;11.50;5.00;;;;;;;11.51;92.79;100464.94;5005746;28;20045;-72
2021/10/05 07:43:10;;;;;;;10.95;5.05;;;;;;;11.61;91.30;100463.78;4994496;28;20065;-74
2021/10/05 07:45:37;;;;;;;7.35;4.45;;;;;;;11.65;91.15;100460.22;5001669;28;20054;-73
2021/10/05 07:48:05;;;;;;;9.80;4.50;;;;;;;11.64;91.40;100448.09;4995334;28;20046;-71
2021/10/05 07:50:33;;;;;;;7.93;4.85;;;;;;;11.71;90.52;100447.91;4998621;28;20141;-73
2021/10/05 07:53:00;;;;;;;8.43;4.38;;;;;;;11.75;91.12;100445.16;4999062;28;20057;-74
2021/10/05 07:55:30;;;;;;;9.95;4.60;;;;;;;11.76;91.05;100441.66;4997426;28;20056;-73
2021/10/05 07:57:57;;;;;;;8.48;4.63;;;;;;;11.87;90.76;100437.88;4996143;28;20050;-73
2021/10/05 08:00:23;;;;;;;9.85;4.90;;;;;;;11.86;90.94;100430.97;5000647;28;20140;-73
2021/10/05 08:02:50;;;;;;;8.52;5.07;;;;;;;11.90;90.88;100427.38;5001138;28;20050;-74
2021/10/05 08:05:16;;;;;;;9.35;4.40;;;;;;;12.02;90.45;100426.19;4993906;28;20068;-71
2021/10/05 08:07:43;;;;;;;8.52;5.25;;;;;;;12.03;89.83;100418.31;5003110;28;20038;-73
2021/10/05 08:10:10;;;;;;;8.98;5.00;;;;;;;12.02;89.58;100416.63;5004218;28;20587;-74
2021/10/05 08:12:38;;;;;;;8.60;5.10;;;;;;;12.04;90.04;100411.34;5001314;28;20128;-73
2021/10/05 08:15:05;;;;;;;8.75;5.13;;;;;;;12.06;90.08;100414.78;5007450;28;20060;-75
2021/10/05 08:17:32;;;;;;;8.23;4.68;;;;;;;12.05;90.51;100410.47;4999449;28;20713;-74
2021/10/05 08:19:59;;;;;;;8.38;5.25;;;;;;;12.17;89.54;100409.22;5000069;28;20058;-74
2021/10/05 08:22:25;;;;;;;7.78;5.28;;;;;;;12.18;89.37;100410.94;5000615;28;20496;-73
2021/10/05 08:24:52;;;;;;;14.00;5.20;;;;;;;12.29;88.88;100401.00;5000009;28;20069;-72
2021/10/05 08:27:19;;;;;;;8.63;4.35;;;;;;;12.33;88.20;100407.81;4998871;28;20061;-73
2021/10/05 08:29:48;;;;;;;7.43;4.47;;;;;;;12.33;87.54;100402.59;4998449;28;20088;-74
2021/10/05 08:32:16;;;;;;;7.65;3.95;;;;;;;12.33;87.91;100406.97;4998764;28;20115;-73
2021/10/05 08:34:42;;;;;;;8.48;4.43;;;;;;;12.47;87.26;100398.72;4997967;28;20057;-73
2021/10/05 08:37:09;;;;;;;8.18;4.10;;;;;;;12.41;87.63;100397.16;5003434;28;20515;-73
2021/10/05 08:39:35;;;;;;;8.75;4.85;;;;;;;12.63;86.26;100394.69;5006350;28;20061;-71
2021/10/05 08:42:03;;;;;;;8.07;4.22;;;;;;;12.66;86.48;100388.53;4999681;28;20046;-74
2021/10/05 08:44:30;;;;;;;7.82;3.80;;;;;;;12.74;86.43;100381.28;4993524;28;20960;-73
2021/10/05 08:46:57;;;;;;;6.72;3.70;;;;;;;12.72;85.81;100386.56;4994682;28;20051;-73
2021/10/05 08:49:24;;;;;;;9.13;4.20;;;;;;;12.74;85.32;100374.31;4997883;28;20056;-73
2021/10/05 08:51:52;;;;;;;10.07;4.40;;;;;;;12.67;85.75;100372.81;5003401;28;20050;-74
2021/10/05 08:54:19;;;;;;;9.27;4.70;;;;;;;12.66;85.80;100372.88;4999367;28;20054;-74
2021/10/05 08:56:47;;;;;;;7.65;4.30;;;;;;;12.67;86.39;100364.16;4995445;28;20059;-72
2021/10/05 08:59:14;;;;;;;8.75;4.57;;;;;;;12.73;86.06;100356.94;5002493;28;20054;-73
2021/10/05 09:01:41;;;;;;;7.78;4.38;;;;;;;12.84;85.48;100356.59;5000243;28;20081;-72
2021/10/05 09:04:09;;;;;;;9.27;4.18;;;;;;;12.85;85.96;100349.59;4997593;28;20049;-73
2021/10/05 09:06:37;;;;;;;8.38;3.75;;;;;;;12.95;85.75;100345.75;4998184;28;20056;-72
2021/10/05 09:09:05;;;;;;;7.60;4.35;;;;;;;13.06;84.95;100348.84;4999907;28;20054;-73
2021/10/05 09:11:39;;;;;;;8.50;4.40;;;;;;;13.17;85.07;100348.47;4994990;28;20050;-73
2021/10/05 09:14:06;;;;;;;9.17;4.13;;;;;;;13.24;84.16;100345.63;5003203;28;20046;-72
2021/10/05 09:16:33;;;;;;;8.75;3.72;;;;;;;13.33;83.26;100343.50;4998825;28;20046;-73
2021/10/05 09:19:02;;;;;;;6.43;3.03;;;;;;;13.43;81.80;100338.84;4997903;28;20080;-73
2021/10/05 09:21:32;;;;;;;10.90;3.40;;;;;;;13.49;81.92;100325.53;4996359;28;20058;-70
2021/10/05 09:24:00;;;;;;;5.50;2.78;;;;;;;13.58;81.72;100328.69;4997834;28;20734;-73
2021/10/05 09:26:38;;;;;;;7.10;3.25;;;;;;;13.67;80.52;100323.97;4999903;28;20062;-73
2021/10/05 09:29:09;;;;;;;9.75;2.97;;;;;;;13.73;80.27;100316.78;5000047;28;20069;-73
2021/10/05 09:31:50;;;;;;;7.55;3.00;;;;;;;13.82;80.29;100313.84;4995848;28;20049;-72
2021/10/05 09:34:18;;;;;;;11.30;3.63;;;;;;;13.95;79.49;100320.25;5001719;28;20038;-73
2021/10/05 09:36:45;;;;;;;4.50;2.53;;;;;;;13.95;79.19;100301.13;4995410;28;20057;-71
2021/10/05 09:39:12;;;;;;;6.47;2.20;;;;;;;14.03;78.23;100300.78;4996844;28;20054;-72
2021/10/05 09:41:38;;;;;;;5.10;2.25;;;;;;;14.08;77.47;100294.47;5006258;28;20884;-73
2021/10/05 09:44:07;;;;;;;5.10;2.17;;;;;;;14.10;78.63;100299.66;5002998;28;20054;-74
2021/10/05 09:46:34;;;;;;;7.95;2.72;;;;;;;14.11;77.72;100302.19;5000361;28;20108;-72
2021/10/05 09:49:01;;;;;;;4.55;2.03;;;;;;;14.26;78.04;100298.09;4999512;28;20053;-71
2021/10/05 09:51:28;;;;;;;8.65;2.78;;;;;;;14.33;77.71;100289.97;4996723;28;20054;-73
2021/10/05 09:53:58;;;;;;;5.72;2.03;;;;;;;14.37;77.39;100281.97;5006643;28;20388;-72
2021/10/05 09:56:26;;;;;;;4.50;2.08;;;;;;;14.36;77.31;100271.53;5008649;28;20111;-74
2021/10/05 09:58:54;;;;;;;3.85;1.60;;;;;;;14.50;76.85;100276.19;5002075;28;20563;-74
2021/10/05 10:01:22;;;;;;;5.22;1.92;;;;;;;14.52;77.20;100277.84;5003140;28;20050;-70
2021/10/05 10:03:49;;;;;;;5.53;1.95;;;;;;;14.60;77.23;100265.25;4997821;28;20050;-72
2021/10/05 10:06:16;;;;;;;7.32;1.98;;;;;;;14.63;76.73;100256.41;4997419;28;20057;-72
2021/10/05 10:08:46;;;;;;;4.15;1.70;;;;;;;14.75;75.04;100247.19;4998294;28;20050;-71
2021/10/05 10:11:14;;;;;;;4.47;1.95;;;;;;;14.69;75.39;100252.72;5002631;28;20518;-72
2021/10/05 10:13:43;;;;;;;6.50;1.60;;;;;;;14.73;74.21;100243.78;4997412;28;20431;-72
2021/10/05 10:16:10;;;;;;;5.60;2.25;;;;;;;14.66;75.71;100239.72;4994693;28;20092;-72
2021/10/05 10:18:36;;;;;;;8.43;2.10;;;;;;;14.56;76.83;100229.66;5006835;28;20050;-73
2021/10/05 10:21:06;;;;;;;8.43;1.70;;;;;;;14.65;76.11;100228.41;5003465;28;20058;-72
2021/10/05 10:23:34;;;;;;;7.05;2.15;;;;;;;14.71;75.97;100225.53;5012754;28;20046;-72
2021/10/05 10:26:04;;;;;;;7.97;2.58;;;;;;;14.74;75.47;100221.94;5001080;28;20045;-72
2021/10/05 10:28:35;;;;;;;5.32;1.70;;;;;;;14.91;74.97;100206.31;5002887;28;20038;-72
2021/10/05 10:31:04;;;;;;;7.65;1.95;;;;;;;15.00;74.20;100202.41;5003013;28;20566;-73
2021/10/05 10:33:43;;;;;;;5.53;2.00;;;;;;;15.06;74.37;100186.44;4998802;28;20050;-72
2021/10/05 10:36:10;;;;;;;6.28;2.22;;;;;;;15.02;74.48;100192.72;4997560;28;20131;-71
2021/10/05 10:38:42;;;;;;;5.32;2.20;;;;;;;15.09;75.57;100195.91;5000901;28;20046;-72
2021/10/05 10:41:15;;;;;;;5.75;1.77;;;;;;;15.19;74.36;100191.94;5003855;28;20050;-71
2021/10/05 10:43:51;;;;;;;5.57;1.70;;;;;;;15.36;72.93;100179.78;5001003;28;20057;-74
2021/10/05 10:46:23;;;;;;;5.97;1.48;;;;;;;15.35;74.72;100180.72;5000660;28;20136;-72
2021/10/05 10:48:55;;;;;;;4.10;1.80;;;;;;;15.44;74.08;100174.19;4998819;28;20038;-74
2021/10/05 10:51:26;;;;;;;6.35;1.85;;;;;;;15.41;74.61;100172.56;5002647;28;20128;-73
2021/10/05 10:53:54;;;;;;;4.20;1.38;;;;;;;15.46;74.62;100173.19;5001264;28;20099;-72
2021/10/05 10:56:28;;;;;;;4.85;2.00;;;;;;;15.48;73.56;100160.84;5004064;28;20062;-72
2021/10/05 10:59:00;;;;;;;4.40;1.17;;;;;;;15.54;72.97;100165.78;5000753;28;20129;-73
2021/10/05 11:01:41;;;;;;;4.45;2.03;;;;;;;15.58;73.37;100156.00;4999753;28;20081;-72
2021/10/05 11:04:09;;;;;;;3.63;1.33;;;;;;;15.60;72.33;100156.78;5001967;28;20081;-74
2021/10/05 11:06:35;;;;;;;7.90;1.83;;;;;;;15.75;71.73;100143.84;4997799;28;20050;-74
2021/10/05 11:09:03;;;;;;;4.13;1.30;;;;;;;15.91;70.44;100147.41;5003643;28;20065;-71
2021/10/05 11:11:35;;;;;;;7.07;1.48;;;;;;;15.91;70.35;100136.06;4991509;28;20853;-72
2021/10/05 11:14:05;;;;;;;5.20;1.30;;;;;;;15.96;69.74;100140.16;5004785;28;20046;-71
2021/10/05 11:16:33;;;;;;;5.28;1.20;;;;;;;15.96;69.43;100134.03;5002013;28;20057;-72
2021/10/05 11:19:05;;;;;;;3.63;1.33;;;;;;;16.11;68.61;100130.66;5000838;28;20537;-73
2021/10/05 11:21:33;;;;;;;4.88;1.20;;;;;;;16.15;68.20;100131.31;5001889;28;20097;-72
2021/10/05 11:23:59;;;;;;;4.95;1.40;;;;;;;16.28;68.33;100128.91;4997670;28;20066;-72